KEMT

San Gabriel Valley Airport

El Monte, California, USA
METAR KEMT 230345Z 00000KT 10SM FEW027 SCT039 12/04 A3017
Observed Flight Rules
Feb-23 @ 03:45 UTC (7 hours ago) Visual Flight Rules
Wind Visibility Clouds
Calm 10 miles
  • Few at 2,700' AGL
  • Scattered at 3,900' AGL
Temperatures Readings
Current 12°C / 54°F
Dewpoint 4°C / 39°F
Humidity 58%
Altimeter 30.17" Hg
Pressure 1022 hPa
Elevation 90
METAR KEMT 230345Z 00000KT 10SM FEW027 SCT039 12/04 A3017
Observed Flight Rules
Feb-23 @ 03:45 UTC
(7 hours ago)
VFR
Wind Visibility
Calm 10 miles
Clouds
  • Few at 2,700' AGL
  • Scattered at 3,900' AGL
Temperature Dewpoint
12°C / 54°F 4°C / 39°F
Humidity Altimeter Pressure
58% 30.17" Hg 1022 hPa